Tinicum Township, Pennsylvania
Current Conditions -  °F | °C
As of 7:54 PM on Monday 20 Oct 2014 (Local Time) from KPHL Reporting Station
Broken Clouds Broken Clouds  
Wind Chill: 57°   Ceiling: 25000
Heat Index: 57°   Visibility: 10mi
Dew Point: 45°   Wind: 7mph
Humidity: 64%   Direction: 170°S
Pressure: 29.98"   Gusts: NA
Location:  39.868°N, 75.2702°W
Report Text: KPHL 202354Z 17006KT 10SM SCT190 BKN250 14/07 A2998 RMK AO2 SLP151 T01390072 10172 20133 55001
Loading
Personal Weather Stations






























Interactive Weather Map
Tropical Storm Tracking
New forecast layout! Learn more

10-Day Weather Forecast

Advertisements
Track Severe Weather on mobile